sensor_id;sensor_type;location;lat;lon;timestamp;pressure;altitude;pressure_sealevel;temperature;humidity
12213;BME280;6169;44.158;22.788;2023-07-02T00:02:34;100175.81;;;23.45;52.10
12213;BME280;6169;44.158;22.788;2023-07-02T00:07:37;100168.69;;;23.26;53.27
12213;BME280;6169;44.158;22.788;2023-07-02T00:12:39;100163.03;;;23.23;53.32
12213;BME280;6169;44.158;22.788;2023-07-02T00:17:41;100147.25;;;23.44;52.24
12213;BME280;6169;44.158;22.788;2023-07-02T00:22:45;100150.25;;;23.01;53.68
12213;BME280;6169;44.158;22.788;2023-07-02T00:27:46;100154.50;;;23.28;53.00
12213;BME280;6169;44.158;22.788;2023-07-02T00:32:48;100152.78;;;23.14;53.87
12213;BME280;6169;44.158;22.788;2023-07-02T00:37:52;100160.16;;;22.72;53.57
12213;BME280;6169;44.158;22.788;2023-07-02T00:42:53;100149.56;;;22.83;53.79
12213;BME280;6169;44.158;22.788;2023-07-02T00:47:56;100157.22;;;22.77;52.21
12213;BME280;6169;44.158;22.788;2023-07-02T00:53:00;100167.00;;;22.19;54.32
12213;BME280;6169;44.158;22.788;2023-07-02T00:58:02;100157.03;;;22.35;55.35
12213;BME280;6169;44.158;22.788;2023-07-02T01:03:04;100156.09;;;22.69;54.44
12213;BME280;6169;44.158;22.788;2023-07-02T01:08:08;100157.06;;;22.65;53.35
12213;BME280;6169;44.158;22.788;2023-07-02T01:13:11;100158.44;;;22.50;53.80
12213;BME280;6169;44.158;22.788;2023-07-02T01:18:14;100157.69;;;22.32;53.62
12213;BME280;6169;44.158;22.788;2023-07-02T01:23:17;100158.72;;;22.66;53.31
12213;BME280;6169;44.158;22.788;2023-07-02T01:28:19;100160.72;;;22.48;52.94
12213;BME280;6169;44.158;22.788;2023-07-02T01:33:24;100158.53;;;22.80;54.34
12213;BME280;6169;44.158;22.788;2023-07-02T01:38:27;100156.97;;;22.53;53.55
12213;BME280;6169;44.158;22.788;2023-07-02T01:43:29;100152.13;;;22.41;55.01
12213;BME280;6169;44.158;22.788;2023-07-02T01:48:31;100148.56;;;22.32;54.00
12213;BME280;6169;44.158;22.788;2023-07-02T01:53:34;100142.75;;;21.98;54.00
12213;BME280;6169;44.158;22.788;2023-07-02T01:58:36;100134.75;;;22.05;54.17
12213;BME280;6169;44.158;22.788;2023-07-02T02:03:38;100136.03;;;22.17;54.80
12213;BME280;6169;44.158;22.788;2023-07-02T02:08:41;100139.91;;;22.42;53.73
12213;BME280;6169;44.158;22.788;2023-07-02T02:13:43;100132.78;;;22.15;53.68
12213;BME280;6169;44.158;22.788;2023-07-02T02:18:45;100133.75;;;22.10;55.41
12213;BME280;6169;44.158;22.788;2023-07-02T02:23:48;100128.84;;;22.33;54.59
12213;BME280;6169;44.158;22.788;2023-07-02T02:28:50;100113.41;;;22.15;54.68
12213;BME280;6169;44.158;22.788;2023-07-02T02:33:52;100102.44;;;22.36;53.64
12213;BME280;6169;44.158;22.788;2023-07-02T02:38:56;100105.47;;;21.96;56.03
12213;BME280;6169;44.158;22.788;2023-07-02T02:43:58;100098.31;;;21.77;55.57
12213;BME280;6169;44.158;22.788;2023-07-02T02:49:00;100098.78;;;21.88;55.97
12213;BME280;6169;44.158;22.788;2023-07-02T02:54:03;100096.81;;;22.06;56.70
12213;BME280;6169;44.158;22.788;2023-07-02T02:59:05;100110.59;;;22.41;55.09
12213;BME280;6169;44.158;22.788;2023-07-02T03:04:07;100106.41;;;22.09;55.62
12213;BME280;6169;44.158;22.788;2023-07-02T03:09:11;100120.66;;;21.72;56.92
12213;BME280;6169;44.158;22.788;2023-07-02T03:14:13;100106.59;;;22.21;54.95
12213;BME280;6169;44.158;22.788;2023-07-02T03:19:15;100116.66;;;22.17;55.76
12213;BME280;6169;44.158;22.788;2023-07-02T03:24:18;100117.16;;;22.10;56.40
12213;BME280;6169;44.158;22.788;2023-07-02T03:29:20;100123.03;;;21.48;57.94
12213;BME280;6169;44.158;22.788;2023-07-02T03:34:22;100118.44;;;21.17;60.13
12213;BME280;6169;44.158;22.788;2023-07-02T03:39:25;100123.41;;;21.72;58.93
12213;BME280;6169;44.158;22.788;2023-07-02T03:44:27;100126.50;;;21.53;59.09
12213;BME280;6169;44.158;22.788;2023-07-02T03:49:29;100131.81;;;22.02;57.32
12213;BME280;6169;44.158;22.788;2023-07-02T03:54:32;100130.88;;;21.72;59.23
12213;BME280;6169;44.158;22.788;2023-07-02T03:59:34;100145.50;;;22.07;58.53
12213;BME280;6169;44.158;22.788;2023-07-02T04:04:36;100149.91;;;21.65;60.00
12213;BME280;6169;44.158;22.788;2023-07-02T04:09:40;100152.31;;;22.10;58.81
12213;BME280;6169;44.158;22.788;2023-07-02T04:14:42;100149.41;;;21.89;60.02
12213;BME280;6169;44.158;22.788;2023-07-02T04:19:43;100141.78;;;21.59;60.84
12213;BME280;6169;44.158;22.788;2023-07-02T04:24:47;100145.34;;;21.86;60.30
12213;BME280;6169;44.158;22.788;2023-07-02T04:29:49;100160.97;;;22.17;59.14
12213;BME280;6169;44.158;22.788;2023-07-02T04:34:51;100175.78;;;21.77;61.90
12213;BME280;6169;44.158;22.788;2023-07-02T04:39:54;100171.38;;;21.50;63.10
12213;BME280;6169;44.158;22.788;2023-07-02T04:44:56;100175.78;;;21.95;61.11
12213;BME280;6169;44.158;22.788;2023-07-02T04:50:02;100175.59;;;22.09;60.55
12213;BME280;6169;44.158;22.788;2023-07-02T04:55:06;100171.31;;;22.55;59.46
12213;BME280;6169;44.158;22.788;2023-07-02T05:00:08;100197.56;;;22.14;60.51
12213;BME280;6169;44.158;22.788;2023-07-02T05:05:10;100208.84;;;22.26;60.54
12213;BME280;6169;44.158;22.788;2023-07-02T05:10:14;100197.25;;;22.33;61.04
12213;BME280;6169;44.158;22.788;2023-07-02T05:15:16;100210.72;;;22.60;59.75
12213;BME280;6169;44.158;22.788;2023-07-02T05:20:18;100217.56;;;22.63;59.41
12213;BME280;6169;44.158;22.788;2023-07-02T05:25:21;100217.28;;;22.38;60.27
12213;BME280;6169;44.158;22.788;2023-07-02T05:30:23;100217.63;;;21.93;63.24
12213;BME280;6169;44.158;22.788;2023-07-02T05:35:25;100224.31;;;22.01;62.13
12213;BME280;6169;44.158;22.788;2023-07-02T05:40:28;100224.47;;;22.22;61.46
12213;BME280;6169;44.158;22.788;2023-07-02T05:45:31;100226.03;;;22.58;59.45
12213;BME280;6169;44.158;22.788;2023-07-02T05:50:33;100237.97;;;22.15;61.21
12213;BME280;6169;44.158;22.788;2023-07-02T05:55:36;100236.78;;;22.50;60.59
12213;BME280;6169;44.158;22.788;2023-07-02T06:00:38;100237.66;;;22.98;59.77
12213;BME280;6169;44.158;22.788;2023-07-02T06:05:41;100239.75;;;23.39;58.03
12213;BME280;6169;44.158;22.788;2023-07-02T06:10:45;100240.44;;;23.66;57.15
12213;BME280;6169;44.158;22.788;2023-07-02T06:15:47;100243.47;;;23.52;58.79
12213;BME280;6169;44.158;22.788;2023-07-02T06:20:50;100241.72;;;23.69;58.43
12213;BME280;6169;44.158;22.788;2023-07-02T06:25:53;100243.69;;;23.68;59.81
12213;BME280;6169;44.158;22.788;2023-07-02T06:31:01;100246.50;;;23.30;60.98
12213;BME280;6169;44.158;22.788;2023-07-02T06:36:03;100243.88;;;23.63;58.86
12213;BME280;6169;44.158;22.788;2023-07-02T06:41:07;100239.47;;;23.83;58.80
12213;BME280;6169;44.158;22.788;2023-07-02T06:46:09;100239.47;;;23.83;58.96
12213;BME280;6169;44.158;22.788;2023-07-02T06:51:11;100246.53;;;24.01;58.71
12213;BME280;6169;44.158;22.788;2023-07-02T06:56:16;100248.19;;;24.57;56.36
12213;BME280;6169;44.158;22.788;2023-07-02T07:01:18;100245.94;;;24.71;56.33
12213;BME280;6169;44.158;22.788;2023-07-02T07:06:20;100246.97;;;24.66;55.84
12213;BME280;6169;44.158;22.788;2023-07-02T07:11:23;100260.22;;;24.27;56.60
12213;BME280;6169;44.158;22.788;2023-07-02T07:16:25;100259.38;;;24.81;56.53
12213;BME280;6169;44.158;22.788;2023-07-02T07:21:27;100257.59;;;24.64;55.91
12213;BME280;6169;44.158;22.788;2023-07-02T07:26:31;100256.66;;;24.60;55.11
12213;BME280;6169;44.158;22.788;2023-07-02T07:31:33;100259.00;;;24.70;54.30
12213;BME280;6169;44.158;22.788;2023-07-02T07:36:35;100257.25;;;24.33;54.44
12213;BME280;6169;44.158;22.788;2023-07-02T07:41:39;100260.00;;;24.99;54.26
12213;BME280;6169;44.158;22.788;2023-07-02T07:46:41;100263.84;;;25.19;51.49
12213;BME280;6169;44.158;22.788;2023-07-02T07:51:43;100267.31;;;25.16;53.16
12213;BME280;6169;44.158;22.788;2023-07-02T07:56:46;100260.03;;;25.24;52.44
12213;BME280;6169;44.158;22.788;2023-07-02T08:01:48;100270.47;;;25.64;51.13
12213;BME280;6169;44.158;22.788;2023-07-02T08:06:50;100269.16;;;25.98;50.25
12213;BME280;6169;44.158;22.788;2023-07-02T08:11:53;100266.25;;;25.94;49.55
12213;BME280;6169;44.158;22.788;2023-07-02T08:16:55;100266.31;;;26.10;49.40
12213;BME280;6169;44.158;22.788;2023-07-02T08:21:57;100271.66;;;26.15;49.80
12213;BME280;6169;44.158;22.788;2023-07-02T08:27:00;100267.44;;;25.81;51.04
12213;BME280;6169;44.158;22.788;2023-07-02T08:32:03;100270.31;;;26.37;50.68
12213;BME280;6169;44.158;22.788;2023-07-02T08:37:05;100269.06;;;26.51;51.11
12213;BME280;6169;44.158;22.788;2023-07-02T08:42:08;100273.53;;;26.39;51.47
12213;BME280;6169;44.158;22.788;2023-07-02T08:47:10;100268.91;;;26.59;50.77
12213;BME280;6169;44.158;22.788;2023-07-02T08:52:13;100270.88;;;26.43;52.39
12213;BME280;6169;44.158;22.788;2023-07-02T08:57:16;100260.03;;;26.69;50.63
12213;BME280;6169;44.158;22.788;2023-07-02T09:02:29;100274.53;;;26.75;52.07
12213;BME280;6169;44.158;22.788;2023-07-02T09:07:31;100269.06;;;27.26;50.41
12213;BME280;6169;44.158;22.788;2023-07-02T09:12:35;100258.81;;;26.99;51.07
12213;BME280;6169;44.158;22.788;2023-07-02T09:17:38;100252.03;;;27.63;48.90
12213;BME280;6169;44.158;22.788;2023-07-02T09:22:40;100255.38;;;27.88;48.67
12213;BME280;6169;44.158;22.788;2023-07-02T09:27:44;100255.34;;;28.62;44.22
12213;BME280;6169;44.158;22.788;2023-07-02T09:32:48;100249.25;;;29.26;41.87
12213;BME280;6169;44.158;22.788;2023-07-02T09:37:49;100239.22;;;29.51;43.57
12213;BME280;6169;44.158;22.788;2023-07-02T09:42:53;100239.91;;;29.68;41.21
12213;BME280;6169;44.158;22.788;2023-07-02T09:47:56;100246.06;;;29.54;42.33
12213;BME280;6169;44.158;22.788;2023-07-02T09:52:58;100237.88;;;28.92;44.42
12213;BME280;6169;44.158;22.788;2023-07-02T09:58:02;100236.53;;;28.82;46.56
12213;BME280;6169;44.158;22.788;2023-07-02T10:03:04;100231.91;;;29.17;43.23
12213;BME280;6169;44.158;22.788;2023-07-02T10:08:12;100221.63;;;29.01;40.84
12213;BME280;6169;44.158;22.788;2023-07-02T10:13:25;100223.84;;;29.65;38.35
12213;BME280;6169;44.158;22.788;2023-07-02T10:18:27;100227.63;;;29.76;37.65
12213;BME280;6169;44.158;22.788;2023-07-02T10:23:33;100216.63;;;29.37;39.00
12213;BME280;6169;44.158;22.788;2023-07-02T10:28:36;100214.44;;;29.00;40.81
12213;BME280;6169;44.158;22.788;2023-07-02T10:33:42;100205.56;;;30.04;40.01
12213;BME280;6169;44.158;22.788;2023-07-02T10:38:44;100215.00;;;29.89;38.51
12213;BME280;6169;44.158;22.788;2023-07-02T10:43:48;100203.84;;;29.96;38.93
12213;BME280;6169;44.158;22.788;2023-07-02T10:48:53;100201.88;;;28.67;40.75
12213;BME280;6169;44.158;22.788;2023-07-02T10:53:58;100194.66;;;29.96;40.45
12213;BME280;6169;44.158;22.788;2023-07-02T10:59:02;100204.44;;;30.09;39.29
12213;BME280;6169;44.158;22.788;2023-07-02T11:04:05;100202.38;;;30.81;38.42
12213;BME280;6169;44.158;22.788;2023-07-02T11:09:15;100185.63;;;30.10;39.26
12213;BME280;6169;44.158;22.788;2023-07-02T11:14:27;100176.13;;;29.57;41.00
12213;BME280;6169;44.158;22.788;2023-07-02T11:19:29;100167.69;;;29.84;40.58
12213;BME280;6169;44.158;22.788;2023-07-02T11:24:31;100167.84;;;29.98;40.63
12213;BME280;6169;44.158;22.788;2023-07-02T11:29:35;100176.00;;;30.07;41.29
12213;BME280;6169;44.158;22.788;2023-07-02T11:34:37;100170.59;;;31.18;40.07
12213;BME280;6169;44.158;22.788;2023-07-02T11:39:39;100166.66;;;31.29;39.08
12213;BME280;6169;44.158;22.788;2023-07-02T11:44:46;100158.31;;;30.03;40.03
12213;BME280;6169;44.158;22.788;2023-07-02T11:49:47;100154.19;;;29.33;40.63
12213;BME280;6169;44.158;22.788;2023-07-02T11:54:49;100153.81;;;29.61;41.36
12213;BME280;6169;44.158;22.788;2023-07-02T12:05:31;100201.81;;;28.02;42.84
12213;BME280;6169;44.158;22.788;2023-07-02T12:10:33;100212.94;;;27.63;45.55
12213;BME280;6169;44.158;22.788;2023-07-02T12:15:35;100207.34;;;26.80;46.12
12213;BME280;6169;44.158;22.788;2023-07-02T12:20:38;100196.91;;;27.60;43.27
12213;BME280;6169;44.158;22.788;2023-07-02T12:25:40;100199.63;;;26.74;46.17
12213;BME280;6169;44.158;22.788;2023-07-02T12:30:42;100190.22;;;26.50;51.24
12213;BME280;6169;44.158;22.788;2023-07-02T12:35:45;100186.09;;;26.16;51.90
12213;BME280;6169;44.158;22.788;2023-07-02T12:40:47;100167.03;;;26.62;52.21
12213;BME280;6169;44.158;22.788;2023-07-02T12:45:49;100164.75;;;27.47;50.57
12213;BME280;6169;44.158;22.788;2023-07-02T12:50:56;100160.72;;;27.64;50.71
12213;BME280;6169;44.158;22.788;2023-07-02T12:55:58;100176.06;;;28.32;50.25
12213;BME280;6169;44.158;22.788;2023-07-02T13:01:00;100177.88;;;28.89;48.97
12213;BME280;6169;44.158;22.788;2023-07-02T13:06:04;100170.78;;;29.19;49.02
12213;BME280;6169;44.158;22.788;2023-07-02T13:11:06;100167.22;;;29.52;48.92
12213;BME280;6169;44.158;22.788;2023-07-02T13:16:08;100161.81;;;30.30;46.18
12213;BME280;6169;44.158;22.788;2023-07-02T13:21:12;100145.09;;;30.85;45.74
12213;BME280;6169;44.158;22.788;2023-07-02T13:26:14;100127.25;;;31.92;45.42
12213;BME280;6169;44.158;22.788;2023-07-02T13:31:16;100122.13;;;32.47;42.29
12213;BME280;6169;44.158;22.788;2023-07-02T13:36:20;100125.22;;;31.78;44.01
12213;BME280;6169;44.158;22.788;2023-07-02T13:41:22;100139.88;;;30.84;45.04
12213;BME280;6169;44.158;22.788;2023-07-02T13:46:24;100159.56;;;30.46;45.34
12213;BME280;6169;44.158;22.788;2023-07-02T13:51:28;100173.16;;;30.82;42.98
12213;BME280;6169;44.158;22.788;2023-07-02T13:56:30;100169.50;;;30.81;43.33
12213;BME280;6169;44.158;22.788;2023-07-02T14:01:33;100169.88;;;31.24;40.90
12213;BME280;6169;44.158;22.788;2023-07-02T14:06:36;100179.47;;;30.72;42.84
12213;BME280;6169;44.158;22.788;2023-07-02T14:11:38;100176.63;;;31.96;41.83
12213;BME280;6169;44.158;22.788;2023-07-02T14:16:42;100175.56;;;31.42;40.00
12213;BME280;6169;44.158;22.788;2023-07-02T14:21:44;100168.56;;;31.80;35.23
12213;BME280;6169;44.158;22.788;2023-07-02T14:26:46;100161.47;;;31.31;36.53
12213;BME280;6169;44.158;22.788;2023-07-02T14:31:50;100153.59;;;30.96;37.88
12213;BME280;6169;44.158;22.788;2023-07-02T14:36:52;100155.88;;;30.80;38.31
12213;BME280;6169;44.158;22.788;2023-07-02T14:41:54;100161.38;;;29.94;40.05
12213;BME280;6169;44.158;22.788;2023-07-02T14:46:57;100184.75;;;30.06;39.85
12213;BME280;6169;44.158;22.788;2023-07-02T14:51:59;100192.56;;;28.60;42.16
12213;BME280;6169;44.158;22.788;2023-07-02T14:57:01;100223.34;;;27.82;48.27
12213;BME280;6169;44.158;22.788;2023-07-02T15:02:05;100221.75;;;26.82;45.11
12213;BME280;6169;44.158;22.788;2023-07-02T15:07:07;100203.72;;;26.64;51.50
12213;BME280;6169;44.158;22.788;2023-07-02T15:12:09;100172.97;;;26.76;47.33
12213;BME280;6169;44.158;22.788;2023-07-02T15:17:12;100180.47;;;28.33;42.63
12213;BME280;6169;44.158;22.788;2023-07-02T15:22:14;100199.94;;;29.18;39.63
12213;BME280;6169;44.158;22.788;2023-07-02T15:27:16;100195.25;;;30.09;44.80
12213;BME280;6169;44.158;22.788;2023-07-02T15:32:20;100193.19;;;29.75;47.11
12213;BME280;6169;44.158;22.788;2023-07-02T15:37:22;100195.28;;;30.12;47.12
12213;BME280;6169;44.158;22.788;2023-07-02T15:42:24;100215.50;;;30.32;45.73
12213;BME280;6169;44.158;22.788;2023-07-02T15:47:31;100216.25;;;29.95;48.44
12213;BME280;6169;44.158;22.788;2023-07-02T15:52:33;100223.44;;;29.63;44.13
12213;BME280;6169;44.158;22.788;2023-07-02T15:57:35;100235.25;;;29.26;45.57
12213;BME280;6169;44.158;22.788;2023-07-02T16:02:38;100233.16;;;29.46;46.81
12213;BME280;6169;44.158;22.788;2023-07-02T16:07:40;100236.13;;;29.30;45.71
12213;BME280;6169;44.158;22.788;2023-07-02T16:12:42;100245.41;;;30.21;47.02
12213;BME280;6169;44.158;22.788;2023-07-02T16:17:47;100262.72;;;30.60;44.09
12213;BME280;6169;44.158;22.788;2023-07-02T16:22:49;100260.03;;;29.77;43.62
12213;BME280;6169;44.158;22.788;2023-07-02T16:27:51;100253.88;;;30.24;42.22
12213;BME280;6169;44.158;22.788;2023-07-02T16:32:55;100254.69;;;29.95;43.05
12213;BME280;6169;44.158;22.788;2023-07-02T16:37:57;100260.69;;;29.97;42.19
12213;BME280;6169;44.158;22.788;2023-07-02T16:42:59;100264.34;;;28.98;42.45
12213;BME280;6169;44.158;22.788;2023-07-02T16:48:02;100248.13;;;28.61;43.18
12213;BME280;6169;44.158;22.788;2023-07-02T16:53:04;100251.31;;;29.82;43.50
12213;BME280;6169;44.158;22.788;2023-07-02T16:58:06;100248.19;;;30.55;43.01
12213;BME280;6169;44.158;22.788;2023-07-02T17:03:10;100242.91;;;29.29;43.48
12213;BME280;6169;44.158;22.788;2023-07-02T17:08:12;100242.03;;;29.25;41.65
12213;BME280;6169;44.158;22.788;2023-07-02T17:13:14;100242.09;;;28.40;43.36
12213;BME280;6169;44.158;22.788;2023-07-02T17:18:17;100245.72;;;28.40;43.31
12213;BME280;6169;44.158;22.788;2023-07-02T17:23:20;100262.34;;;28.53;42.94
12213;BME280;6169;44.158;22.788;2023-07-02T17:28:22;100257.84;;;27.74;44.76
12213;BME280;6169;44.158;22.788;2023-07-02T17:33:26;100260.31;;;27.95;43.98
12213;BME280;6169;44.158;22.788;2023-07-02T17:38:28;100275.03;;;27.92;43.99
12213;BME280;6169;44.158;22.788;2023-07-02T17:43:30;100277.88;;;27.60;44.13
12213;BME280;6169;44.158;22.788;2023-07-02T17:48:33;100271.88;;;27.58;44.10
12213;BME280;6169;44.158;22.788;2023-07-02T17:53:35;100284.94;;;27.22;45.02
12213;BME280;6169;44.158;22.788;2023-07-02T17:58:38;100282.75;;;27.63;44.04
12213;BME280;6169;44.158;22.788;2023-07-02T18:03:41;100291.31;;;27.38;44.59
12213;BME280;6169;44.158;22.788;2023-07-02T18:08:43;100299.22;;;27.21;45.20
12213;BME280;6169;44.158;22.788;2023-07-02T18:13:45;100297.19;;;26.74;46.80
12213;BME280;6169;44.158;22.788;2023-07-02T18:18:49;100315.94;;;26.61;47.42
12213;BME280;6169;44.158;22.788;2023-07-02T18:23:51;100321.44;;;26.57;47.45
12213;BME280;6169;44.158;22.788;2023-07-02T18:28:53;100331.16;;;26.63;48.17
12213;BME280;6169;44.158;22.788;2023-07-02T18:33:56;100347.19;;;26.95;47.82
12213;BME280;6169;44.158;22.788;2023-07-02T18:38:58;100353.09;;;26.93;48.07
12213;BME280;6169;44.158;22.788;2023-07-02T18:44:00;100370.22;;;26.91;48.79
12213;BME280;6169;44.158;22.788;2023-07-02T18:49:04;100377.63;;;26.87;48.83
12213;BME280;6169;44.158;22.788;2023-07-02T18:54:06;100385.00;;;26.39;50.65
12213;BME280;6169;44.158;22.788;2023-07-02T18:59:08;100392.69;;;26.42;50.42
12213;BME280;6169;44.158;22.788;2023-07-02T19:04:12;100405.44;;;26.43;50.27
12213;BME280;6169;44.158;22.788;2023-07-02T19:09:14;100407.56;;;26.10;51.46
12213;BME280;6169;44.158;22.788;2023-07-02T19:14:16;100409.66;;;26.13;51.61
12213;BME280;6169;44.158;22.788;2023-07-02T19:19:20;100408.97;;;26.03;51.72
12213;BME280;6169;44.158;22.788;2023-07-02T19:24:22;100405.47;;;26.07;51.33
12213;BME280;6169;44.158;22.788;2023-07-02T19:29:24;100409.53;;;26.09;51.65
12213;BME280;6169;44.158;22.788;2023-07-02T19:34:29;100403.50;;;26.07;51.73
12213;BME280;6169;44.158;22.788;2023-07-02T19:39:31;100414.47;;;25.54;53.50
12213;BME280;6169;44.158;22.788;2023-07-02T19:44:34;100412.75;;;25.50;53.56
12213;BME280;6169;44.158;22.788;2023-07-02T19:49:37;100422.88;;;25.91;52.53
12213;BME280;6169;44.158;22.788;2023-07-02T19:54:44;100416.34;;;25.63;53.25
12213;BME280;6169;44.158;22.788;2023-07-02T19:59:47;100417.16;;;25.63;53.30
12213;BME280;6169;44.158;22.788;2023-07-02T20:04:55;100422.34;;;25.40;54.38
12213;BME280;6169;44.158;22.788;2023-07-02T20:09:57;100418.44;;;25.53;54.28
12213;BME280;6169;44.158;22.788;2023-07-02T20:15:00;100414.25;;;25.72;53.81
12213;BME280;6169;44.158;22.788;2023-07-02T20:20:04;100420.34;;;25.41;54.66
12213;BME280;6169;44.158;22.788;2023-07-02T20:25:08;100407.13;;;25.04;55.59
12213;BME280;6169;44.158;22.788;2023-07-02T20:30:11;100406.47;;;24.74;56.84
12213;BME280;6169;44.158;22.788;2023-07-02T20:35:14;100411.66;;;24.76;56.52
12213;BME280;6169;44.158;22.788;2023-07-02T20:40:19;100414.44;;;24.97;56.44
12213;BME280;6169;44.158;22.788;2023-07-02T20:45:21;100411.94;;;24.83;56.89
12213;BME280;6169;44.158;22.788;2023-07-02T20:50:25;100417.41;;;24.70;57.84
12213;BME280;6169;44.158;22.788;2023-07-02T20:55:27;100406.97;;;24.67;57.99
12213;BME280;6169;44.158;22.788;2023-07-02T21:00:29;100413.34;;;24.89;57.60
12213;BME280;6169;44.158;22.788;2023-07-02T21:05:33;100411.66;;;24.97;57.41
12213;BME280;6169;44.158;22.788;2023-07-02T21:10:38;100404.00;;;24.52;59.12
12213;BME280;6169;44.158;22.788;2023-07-02T21:15:40;100399.72;;;24.54;58.73
12213;BME280;6169;44.158;22.788;2023-07-02T21:20:44;100406.38;;;24.83;57.76
12213;BME280;6169;44.158;22.788;2023-07-02T21:25:53;100401.06;;;24.48;59.10
12213;BME280;6169;44.158;22.788;2023-07-02T21:30:55;100411.41;;;24.18;60.16
12213;BME280;6169;44.158;22.788;2023-07-02T21:36:00;100407.53;;;24.10;59.97
12213;BME280;6169;44.158;22.788;2023-07-02T21:41:07;100402.72;;;23.90;60.94
12213;BME280;6169;44.158;22.788;2023-07-02T21:46:10;100411.00;;;23.98;60.73
12213;BME280;6169;44.158;22.788;2023-07-02T21:51:14;100409.94;;;24.20;60.07
12213;BME280;6169;44.158;22.788;2023-07-02T21:56:17;100410.94;;;23.77;61.42
12213;BME280;6169;44.158;22.788;2023-07-02T22:01:21;100420.09;;;23.22;63.79
12213;BME280;6169;44.158;22.788;2023-07-02T22:06:24;100419.41;;;23.34;63.33
12213;BME280;6169;44.158;22.788;2023-07-02T22:11:26;100411.53;;;23.92;61.12
12213;BME280;6169;44.158;22.788;2023-07-02T22:16:28;100408.38;;;23.72;61.47
12213;BME280;6169;44.158;22.788;2023-07-02T22:21:32;100419.16;;;23.65;61.84
12213;BME280;6169;44.158;22.788;2023-07-02T22:26:34;100420.88;;;23.31;63.33
12213;BME280;6169;44.158;22.788;2023-07-02T22:31:36;100411.47;;;23.06;64.52
12213;BME280;6169;44.158;22.788;2023-07-02T22:36:39;100414.84;;;23.47;62.76
12213;BME280;6169;44.158;22.788;2023-07-02T22:41:41;100411.59;;;23.27;63.31
12213;BME280;6169;44.158;22.788;2023-07-02T22:46:43;100412.56;;;23.23;63.37
12213;BME280;6169;44.158;22.788;2023-07-02T22:51:48;100424.34;;;23.11;63.92
12213;BME280;6169;44.158;22.788;2023-07-02T22:56:50;100430.66;;;23.37;63.29
12213;BME280;6169;44.158;22.788;2023-07-02T23:01:54;100421.38;;;23.33;62.96
12213;BME280;6169;44.158;22.788;2023-07-02T23:06:57;100430.84;;;23.24;63.59
12213;BME280;6169;44.158;22.788;2023-07-02T23:11:59;100431.19;;;23.13;63.84
12213;BME280;6169;44.158;22.788;2023-07-02T23:17:01;100426.13;;;23.24;63.45
12213;BME280;6169;44.158;22.788;2023-07-02T23:22:05;100425.94;;;23.21;63.12
12213;BME280;6169;44.158;22.788;2023-07-02T23:27:07;100428.84;;;23.42;61.94
12213;BME280;6169;44.158;22.788;2023-07-02T23:32:09;100430.81;;;23.88;59.82
12213;BME280;6169;44.158;22.788;2023-07-02T23:37:12;100435.53;;;23.58;60.07
12213;BME280;6169;44.158;22.788;2023-07-02T23:42:15;100428.03;;;23.50;60.99
12213;BME280;6169;44.158;22.788;2023-07-02T23:47:16;100420.41;;;23.47;61.06
12213;BME280;6169;44.158;22.788;2023-07-02T23:52:20;100431.69;;;23.24;61.40
12213;BME280;6169;44.158;22.788;2023-07-02T23:57:22;100430.13;;;23.62;59.58
